Latest Weather Observations for Barrow Island

IDW60801

Issued at 2:43 pm WST Thursday 30 May 2024 (issued every 10 minutes, with the page automatically refreshed every 10 minutes)

About weather observations | Map of weather stations | Latest weather observations for WA | Other Formats
Station Details ID: 005094 Name: BARROW ISLAND AIRPORT Lat: -20.87 Lon: 115.41 Height: 6.4 m
Data from the previous 72 hours. | See also: Recent months at Barrow Island
Date/Time
WST
Temp
°C
App
Temp
°C
Dew
Point
°C
Rel
Hum
%
Delta-T
°C
Wind Press
QNH
hPa
Press
MSL
hPa
Rain since
9am
mm
Dir  Spd
km/h
Gust
km/h
Spd
kts
Gust
kts
30/02:30pm 25.6 25.0 16.7 58 5.5 ENE 15 19 8 10 1013.8 1013.8 0.0
30/02:00pm 25.7 25.1 17.6 61 5.1 ENE 17 20 9 11 1013.8 1013.8 0.0
30/01:30pm 26.1 24.9 16.1 54 6.1 E 17 19 9 10 1014.0 1014.0 0.0
30/01:00pm 26.3 25.8 17.9 60 5.3 E 17 20 9 11 1014.4 1014.4 0.0
30/12:30pm 25.5 24.6 17.7 62 4.9 ESE 19 22 10 12 1014.6 1014.6 0.0
30/12:00pm 25.1 24.3 18.1 65 4.4 ESE 19 22 10 12 1015.0 1015.0 0.0
30/11:30am 24.4 23.2 17.4 65 4.4 ESE 20 24 11 13 1015.0 1015.0 0.0
30/11:00am 24.0 22.3 17.3 66 4.1 ESE 22 26 12 14 1015.3 1015.3 0.0
30/10:30am 23.8 22.1 17.3 67 4.0 ESE 22 28 12 15 1015.6 1015.6 0.0
30/10:00am 23.8 20.8 16.8 65 4.3 SE 28 30 15 16 1015.7 1015.7 0.0
30/09:30am 23.6 20.7 17.1 67 4.0 SE 28 32 15 17 1015.6 1015.6 0.0
30/09:00am 23.0 19.3 16.1 65 4.2 SE 30 35 16 19 1015.3 1015.3 0.2
30/08:30am 22.6 18.2 15.2 63 4.4 SE 32 35 17 19 1015.0 1015.0 0.2
30/08:00am 22.3 17.7 14.7 62 4.5 SSE 32 37 17 20 1014.9 1014.9 0.2
30/07:30am 21.9 17.3 14.5 63 4.3 SSE 32 35 17 19 1014.4 1014.4 0.2
30/07:00am 22.0 17.6 15.1 65 4.1 SSE 32 35 17 19 1014.1 1014.1 0.2
30/06:30am 22.1 18.8 16.1 69 3.6 SSE 28 33 15 18 1013.8 1013.8 0.2
30/06:00am 22.0 18.0 15.1 65 4.1 SSE 30 33 16 18 1013.3 1013.3 0.2
30/05:30am 22.0 17.9 14.9 64 4.2 SSE 30 35 16 19 1012.8 1012.8 0.2
30/05:00am 22.2 17.3 13.8 59 4.9 SSE 32 37 17 20 1012.6 1012.6 0.2
30/04:30am 22.2 17.0 13.5 57 5.0 SSE 33 39 18 21 1012.6 1012.6 0.2
30/04:00am 22.3 16.6 13.1 56 5.3 SSE 35 39 19 21 1012.4 1012.4 0.2
30/03:30am 22.4 16.7 12.9 55 5.4 SSE 35 43 19 23 1012.4 1012.4 0.2
30/03:00am 22.6 16.4 12.8 54 5.6 SSE 37 44 20 24 1012.6 1012.6 0.2
30/02:30am 22.9 15.9 12.5 52 5.9 SSE 41 48 22 26 1012.8 1012.8 0.2
30/02:00am 23.1 15.8 12.7 52 6.0 SSE 43 50 23 27 1012.8 1012.8 0.2
30/01:30am 23.3 16.1 13.2 53 5.8 SSE 43 48 23 26 1012.8 1012.8 0.2
30/01:00am 23.4 16.8 13.8 54 5.6 SSE 41 46 22 25 1012.8 1012.8 0.2
30/12:30am 23.8 17.7 14.2 55 5.7 SSE 39 46 21 25 1012.8 1012.8 0.2
30/12:00am 24.0 18.1 14.7 56 5.5 S 39 44 21 24 1012.9 1012.9 0.2
 
Date/Time
WST
Temp
°C
App
Temp
°C
Dew
Point
°C
Rel
Hum
%
Delta-T
°C
Wind Press
QNH
hPa
Press
MSL
hPa
Rain since
9am
mm
Dir  Spd
km/h
Gust
km/h
Spd
kts
Gust
kts
29/11:30pm 24.3 18.6 15.2 57 5.5 S 39 46 21 25 1013.0 1013.0 0.2
29/11:00pm 24.4 19.5 15.3 57 5.5 S 35 44 19 24 1013.0 1013.0 0.2
29/10:30pm 24.5 19.2 15.4 57 5.5 SSE 37 43 20 23 1012.9 1012.9 0.2
29/10:00pm 24.7 19.9 15.6 57 5.5 SSE 35 44 19 24 1013.0 1013.0 0.2
29/09:30pm 24.8 20.2 16.0 58 5.4 SSE 35 41 19 22 1013.0 1013.0 0.2
29/09:00pm 24.9 19.3 15.5 56 5.7 SSE 39 44 21 24 1012.9 1012.9 0.2
29/08:30pm 25.0 19.7 16.4 59 5.3 SSE 39 43 21 23 1012.6 1012.6 0.2
29/08:00pm 24.9 21.6 17.1 62 4.8 SSE 30 35 16 19 1012.4 1012.4 0.2
29/07:54pm 24.8 22.2 16.8 61 4.9 S 26 32 14 17 1012.3 1012.3 0.2
29/07:30pm 22.1 22.6 17.5 75 2.8 W 11 11 6 6 1012.3 1012.3 0.2
29/07:00pm 23.3 23.3 18.0 72 3.3 WSW 15 17 8 9 1011.9 1011.9 0.2
29/06:30pm 23.2 22.9 17.4 70 3.6 WSW 15 17 8 9 1011.6 1011.6 0.2
29/06:00pm 23.3 23.4 16.4 65 4.2 W 11 13 6 7 1011.3 1011.3 0.2
29/05:30pm 24.6 24.5 16.1 59 5.2 WSW 11 17 6 9 1011.1 1011.1 0.2
29/05:00pm 25.0 25.3 17.0 61 5.0 W 11 15 6 8 1010.8 1010.8 0.2
29/04:30pm 25.2 25.5 17.1 60 5.0 WSW 11 15 6 8 1010.6 1010.6 0.2
29/04:00pm 25.1 24.9 17.6 63 4.7 SSW 15 19 8 10 1010.4 1010.4 0.2
29/03:30pm 25.5 24.8 18.2 64 4.6 S 19 20 10 11 1010.3 1010.3 0.2
29/03:00pm 25.5 25.2 17.4 61 5.1 S 15 19 8 10 1010.5 1010.5 0.2
29/02:30pm 25.6 24.7 18.3 64 4.6 S 20 24 11 13 1010.7 1010.7 0.2
29/02:00pm 25.5 24.6 18.2 64 4.6 S 20 24 11 13 1010.7 1010.7 0.2
29/01:30pm 25.3 23.6 17.2 61 5.0 S 22 26 12 14 1011.0 1011.0 0.2
29/01:00pm 25.7 24.5 17.1 59 5.4 S 19 22 10 12 1011.2 1011.2 0.2
29/12:30pm 24.9 23.7 17.4 63 4.7 SSW 20 24 11 13 1011.6 1011.6 0.2
29/12:00pm 24.6 23.8 18.1 67 4.1 SSW 19 22 10 12 1012.0 1012.0 0.2
29/11:30am 24.8 24.5 18.3 67 4.1 SSW 17 20 9 11 1012.5 1012.5 0.2
29/11:00am 24.2 24.3 18.4 70 3.7 SSW 15 19 8 10 1012.8 1012.8 0.2
29/10:30am 23.6 24.6 18.7 74 3.1 SSW 11 13 6 7 1012.8 1012.8 0.0
29/10:00am 22.9 24.6 19.3 80 2.3 SSW 9 13 5 7 1013.3 1013.3 0.0
29/09:30am 22.3 24.2 18.9 81 2.1 W 7 11 4 6 1013.7 1013.7 0.0
29/09:00am 21.9 25.1 18.9 83 1.9 CALM 0 0 0 0 1013.3 1013.3 3.2
29/08:30am 21.2 23.5 19.5 90 1.1 NW 6 7 3 4 1012.6 1012.6 3.2
29/08:00am 20.4 22.1 18.5 89 1.2 WNW 7 9 4 5 1013.1 1013.1 3.2
29/07:30am 20.1 21.6 18.8 92 0.8 NNW 9 11 5 6 1012.7 1012.7 3.2
29/07:00am 20.0 21.4 18.7 92 0.8 NW 9 11 5 6 1012.5 1012.5 3.2
29/06:30am 19.9 20.5 18.6 92 0.8 NNW 13 13 7 7 1012.0 1012.0 3.2
29/06:00am 20.2 21.3 18.9 92 0.8 N 11 13 6 7 1011.7 1011.7 3.2
29/05:30am 20.0 21.8 18.7 92 0.8 N 7 9 4 5 1012.0 1012.0 3.2
29/05:00am 19.9 21.7 18.7 93 0.7 NNW 7 9 4 5 1012.0 1012.0 3.2
29/04:30am 19.8 20.7 18.3 91 0.9 N 11 11 6 6 1012.1 1012.1 2.8
29/04:00am 20.2 21.3 18.1 88 1.3 N 9 9 5 5 1011.9 1011.9 2.2
29/03:30am 20.4 20.4 18.2 87 1.4 N 15 17 8 9 1012.1 1012.1 2.0
29/03:00am 20.9 21.8 18.3 85 1.6 N 11 15 6 8 1012.0 1012.0 2.0
29/02:30am 21.0 21.0 18.0 83 1.9 NNE 15 17 8 9 1011.3 1011.3 2.0
29/02:00am 21.8 22.3 17.4 76 2.7 NE 11 15 6 8 1011.8 1011.8 2.0
29/01:30am 22.4 22.1 16.4 69 3.6 NE 13 17 7 9 1012.3 1012.3 2.0
29/01:00am 22.6 21.3 16.9 70 3.5 ENE 19 24 10 13 1011.9 1011.9 2.0
29/12:30am 22.1 20.0 16.1 69 3.6 SE 22 26 12 14 1012.0 1012.0 2.0
29/12:00am 21.8 20.6 17.4 76 2.7 SE 20 24 11 13 1012.3 1012.3 2.0
 
Date/Time
WST
Temp
°C
App
Temp
°C
Dew
Point
°C
Rel
Hum
%
Delta-T
°C
Wind Press
QNH
hPa
Press
MSL
hPa
Rain since
9am
mm
Dir  Spd
km/h
Gust
km/h
Spd
kts
Gust
kts
28/11:30pm 21.7 19.6 17.1 75 2.8 S 24 26 13 14 1012.9 1012.9 2.0
28/11:00pm 20.8 20.3 17.8 83 1.9 WSW 17 24 9 13 1013.3 1013.3 1.8
28/10:30pm 20.9 21.9 18.7 87 1.4 NNW 11 17 6 9 1013.7 1013.7 1.6
28/10:00pm 21.7 22.3 18.5 82 2.0 WSW 13 19 7 10 1013.5 1013.5 1.6
28/09:30pm 21.2 18.5 18.4 84 1.7 SW 30 35 16 19 1013.0 1013.0 1.6
28/09:00pm 20.6 16.0 18.0 85 1.6 SW 39 48 21 26 1012.8 1012.8 1.6
28/08:41pm 20.7 16.5 18.8 89 1.2 WSW 39 57 21 31 1012.7 1012.7 1.4
28/08:34pm 21.4 19.4 18.2 82 2.0 SW 26 57 14 31 1012.6 1012.6 1.2
28/08:30pm 24.2 26.3 22.5 90 1.1 SW 15 28 8 15 1012.7 1012.7 1.0
28/08:00pm 24.4 27.2 22.3 88 1.4 S 11 13 6 7 1012.2 1012.2 0.2
28/07:30pm 24.7 27.1 21.6 83 2.1 SSW 11 15 6 8 1011.9 1011.9 0.0
28/07:00pm 24.8 27.7 21.1 80 2.4 SSW 7 9 4 5 1011.6 1011.6 0.0
28/06:30pm 24.8 27.8 20.9 79 2.6 SW 6 7 3 4 1011.3 1011.3 0.0
28/06:00pm 25.0 27.9 20.7 77 2.8 SW 6 7 3 4 1010.9 1010.9 0.0
28/05:30pm 25.2 28.5 20.7 76 2.9 WSW 4 6 2 3 1010.7 1010.7 0.0
28/05:00pm 25.5 28.4 21.0 76 3.0 ESE 7 9 4 5 1010.5 1010.5 0.0
28/04:30pm 25.9 28.7 20.5 72 3.5 W 6 11 3 6 1010.7 1010.7 0.0
28/04:00pm 25.8 28.3 21.0 75 3.2 ESE 9 11 5 6 1010.4 1010.4 0.0
28/03:30pm 26.3 28.2 21.3 74 3.3 SE 13 15 7 8 1010.3 1010.3 0.0
28/03:00pm 26.5 29.3 21.5 74 3.3 ESE 9 11 5 6 1010.5 1010.5 0.0
28/02:30pm 26.5 28.9 21.5 74 3.3 ESE 11 13 6 7 1010.4 1010.4 0.0
28/02:00pm 26.2 28.4 21.2 74 3.3 E 11 13 6 7 1010.7 1010.7 0.0
28/01:30pm 26.8 29.3 21.1 71 3.8 ENE 9 11 5 6 1011.0 1011.0 0.0
28/01:00pm 26.3 28.3 20.8 71 3.6 E 11 13 6 7 1011.3 1011.3 0.0
28/12:30pm 26.9 29.4 21.0 70 3.9 SE 9 11 5 6 1011.9 1011.9 0.0
28/12:00pm 26.6 29.0 20.9 71 3.8 ENE 9 11 5 6 1012.3 1012.3 0.0
28/11:30am 26.6 29.0 20.9 71 3.8 NE 9 13 5 7 1012.8 1012.8 0.0
28/11:00am 27.1 29.1 20.7 68 4.2 E 11 13 6 7 1012.9 1012.9 0.0
28/10:30am 26.6 28.8 21.1 72 3.6 E 11 13 6 7 1013.4 1013.4 0.0
28/10:00am 26.7 29.2 21.0 71 3.8 E 9 11 5 6 1013.8 1013.8 0.0
28/09:30am 25.7 28.1 20.9 75 3.2 ENE 9 11 5 6 1013.7 1013.7 0.0
28/09:00am 25.0 27.8 20.9 78 2.7 N 7 7 4 4 1013.7 1013.7 0.0
28/08:30am 23.6 26.3 20.7 84 1.9 NW 7 9 4 5 1013.6 1013.6 0.0
28/08:00am 22.6 24.8 20.3 87 1.5 N 9 11 5 6 1013.4 1013.4 0.0
28/07:30am 22.0 24.4 20.1 89 1.2 NNE 7 9 4 5 1013.1 1013.1 0.0
28/07:00am 20.7 22.2 18.8 89 1.2 NNE 9 11 5 6 1012.8 1012.8 0.0
28/06:30am 21.9 24.4 20.2 90 1.1 NE 7 11 4 6 1012.5 1012.5 0.0
28/06:00am 23.3 25.7 20.8 86 1.6 ESE 9 11 5 6 1012.3 1012.3 0.0
28/05:30am 23.2 25.2 20.7 86 1.6 SSE 11 13 6 7 1012.2 1012.2 0.0
28/05:00am 23.4 25.1 20.9 86 1.6 SSE 13 15 7 8 1012.2 1012.2 0.0
28/04:30am 23.7 25.5 21.2 86 1.6 SE 13 17 7 9 1012.5 1012.5 0.0
28/04:00am 23.7 26.4 21.4 87 1.5 SE 9 15 5 8 1012.4 1012.4 0.0
28/03:30am 23.9 25.8 21.4 86 1.6 SE 13 15 7 8 1012.4 1012.4 0.0
28/03:00am 24.4 26.1 22.3 88 1.4 SSE 17 19 9 10 1012.3 1012.3 0.0
28/02:30am 24.6 25.8 22.1 86 1.7 SE 19 20 10 11 1012.8 1012.8 0.0
28/02:00am 24.4 26.0 21.5 84 1.9 SE 15 17 8 9 1013.2 1013.2 0.0
28/01:30am 24.1 26.9 21.6 86 1.7 SE 9 11 5 6 1013.6 1013.6 0.0
28/01:00am 23.5 26.2 20.6 84 1.9 NNW 7 9 4 5 1013.9 1013.9 0.0
28/12:30am 23.4 27.7 21.1 87 1.5 CALM 0 0 0 0 1014.1 1014.1 0.0
28/12:00am 23.2 27.3 20.7 86 1.6 CALM 0 0 0 0 1014.2 1014.2 0.0
 
Date/Time
WST
Temp
°C
App
Temp
°C
Dew
Point
°C
Rel
Hum
%
Delta-T
°C
Wind Press
QNH
hPa
Press
MSL
hPa
Rain since
9am
mm
Dir  Spd
km/h
Gust
km/h
Spd
kts
Gust
kts
27/11:30pm 22.4 24.6 19.2 82 2.0 NNW 6 7 3 4 1014.5 1014.5 0.0
27/11:00pm 22.1 23.9 18.7 81 2.1 NW 7 9 4 5 1014.5 1014.5 0.0
27/10:30pm 22.4 24.2 18.8 80 2.3 NW 7 9 4 5 1014.6 1014.6 0.0
27/10:00pm 23.0 24.2 19.0 78 2.5 NNW 11 15 6 8 1014.3 1014.3 0.0
27/09:30pm 23.2 23.9 18.9 77 2.7 NNW 13 17 7 9 1014.3 1014.3 0.0
27/09:00pm 23.2 23.7 18.3 74 3.1 NNW 13 15 7 8 1014.4 1014.4 0.0
27/08:30pm 23.7 24.4 17.9 70 3.6 N 11 15 6 8 1014.1 1014.1 0.0
27/08:00pm 24.3 23.9 18.0 68 4.0 N 17 19 9 10 1014.0 1014.0 0.0
27/07:30pm 24.3 23.7 17.5 66 4.2 N 17 20 9 11 1013.9 1013.9 0.0
27/07:00pm 24.2 23.9 17.4 65 4.2 NNE 15 17 8 9 1014.0 1014.0 0.0
27/06:30pm 24.4 23.8 16.6 61 4.8 NNE 15 19 8 10 1013.9 1013.9 0.0
27/06:00pm 25.3 23.9 15.6 55 5.9 N 17 19 9 10 1013.8 1013.8 0.0
27/05:30pm 26.1 25.0 16.4 55 6.0 NNE 17 20 9 11 1013.7 1013.7 0.0
27/05:00pm 26.9 24.9 16.5 53 6.4 NE 22 26 12 14 1013.4 1013.4 0.0
27/04:30pm 28.1 25.2 15.1 45 7.9 NE 24 30 13 16 1013.1 1013.1 0.0
27/04:00pm 28.2 25.7 16.1 47 7.5 NE 24 28 13 15 1013.0 1013.0 0.0
27/03:30pm 28.5 25.1 13.6 40 8.9 NNE 24 30 13 16 1013.3 1013.3 0.0
27/03:00pm 27.6 26.7 16.9 52 6.7 NNE 17 20 9 11 1013.7 1013.7 0.0

Other formats

Comma delimited format used in spreadsheet applications
http://www.bom.gov.au/fwo/IDW60801/IDW60801.95304.axf

JavaScript Object Notation format (JSON) in row-major order
http://www.bom.gov.au/fwo/IDW60801/IDW60801.95304.json

Data quality

Most of these data are generated automatically and are frequently updated. Quality checks on data are not normally performed. It is possible for incorrect values to appear. Refer to information at About Latest Weather Observations and please check the disclaimer before using these data.